• Join FlightAware (Why Join?)
  • Login
  • US Flag 
05:18AM EDT


 

Airport Tracker/Info


-or-


 

Live Flight TrackerFlight Track Log ✈ EJA941 ✈ 07-Oct-2013 ✈ KPTK - KDLH

Flight Track Log - Related Links

Times and Time Zones

All times are in EDT time to prevent confusion due to time zone crossing. See the EJA941 flight status page for this flight to view local times or setup timezone preferences in your user account.

Time Position Orientation Groundspeed Altitude Reporting Facility
EDT Latitude Longitude Course Direction KTS MPH feet Rate Location/Type
05:59PM 42.6628 -83.4492 254° West 198 228 1,900  Level Cleveland Center
06:00PM 42.6528 -83.4958 254° West 217 250 3,000 1,680 Climbing Cleveland Center
06:01PM 42.6192 -83.5439 226° Southwest 259 298 4,200 1,140 Climbing Cleveland Center
06:01PM 42.5956 -83.5842 231° Southwest 255 293 4,400 720 Climbing Cleveland Center
06:02PM 42.5822 -83.6250 246° West 259 298 5,000 2,640 Climbing Cleveland Center
06:02PM 42.5744 -83.6633 255° West 261 300 6,600 4,020 Climbing Cleveland Center
06:03PM 42.5572 -83.7167 246° West 260 299 9,200 3,480 Climbing Cleveland Center
06:03PM 42.5450 -83.7694 253° West 267 307 10,900 3,000 Climbing Cleveland Center
06:04PM 42.5300 -83.8150 246° West 279 321 12,300 1,860 Climbing Cleveland Center
06:05PM 42.4917 -83.9550 250° West 337 388 14,000 1,860 Climbing Cleveland Center
06:06PM 42.4589 -84.0775 250° West 349 402 16,200 1,980 Climbing Cleveland Center
06:07PM 42.4272 -84.2033 251° West 354 407 18,200 1,860 Climbing Cleveland Center
06:08PM 42.4311 -84.3372 272° West 358 412 20,100 1,860 Climbing Cleveland Center
06:09PM 42.4353 -84.4744 272° West 363 418 22,100 1,320 Climbing Cleveland Center
06:10PM 42.4400 -84.6192 273° West 383 441 22,900 1,320 Climbing Cleveland Center
06:11PM 42.4439 -84.7892 272° West 405 466 24,900 2,160 Climbing Cleveland Center
06:12PM 42.4469 -84.9389 272° West 400 460 27,500 2,160 Climbing Cleveland Center
06:13PM 42.4517 -85.1008 272° West 398 458 29,400 1,740 Climbing Cleveland Center
06:14PM 42.4550 -85.2731 272° West 408 470 31,100 1,440 Climbing Cleveland Center
06:15PM 42.4578 -85.4381 271° West 432 497 32,400 1,200 Climbing Cleveland Center
06:16PM 42.4594 -85.6061 271° West 443 510 33,600 720 Climbing Cleveland Center
06:17PM 42.4622 -85.7778 271° West 452 520 34,000 180 Climbing Cleveland Center
06:18PM 42.4647 -85.9497 271° West 454 522 34,000  Level Cleveland Center
06:19PM 42.5192 -86.0875 298° West 419 482 34,000 60 Level Cleveland Center
06:20PM 42.6053 -86.1936 318° Northwest 417 480 34,200 1,440 Climbing Cleveland Center
06:21PM 42.7061 -86.3236 317° Northwest 415 478 37,000 2,040 Climbing Cleveland Center
06:22PM 42.7894 -86.4319 316° Northwest 411 473 38,500 1,620 Climbing Cleveland Center
06:23PM 42.8392 -86.4961 317° Northwest 431 496 39,700 1,080 Climbing Minneapolis Center
06:24PM 42.8894 -86.5608 317° Northwest 412 474 40,000 120 Climbing Chicago Center
06:25PM 42.9900 -86.6931 316° Northwest 416 479 40,000  Level Chicago Center
06:26PM 43.0733 -86.8022 316° Northwest 414 476 40,000  Level Chicago Center
06:27PM 43.1558 -86.9100 316° Northwest 411 473 40,000  Level Chicago Center
06:28PM 43.2358 -87.0161 316° Northwest 403 464 40,000  Level Chicago Center
06:29PM 43.3147 -87.1203 316° Northwest 395 455 40,000  Level Chicago Center
06:30PM 43.3922 -87.2203 317° Northwest 385 443 40,000  Level Chicago Center
06:31PM 43.4669 -87.3228 315° West 382 440 40,000  Level Chicago Center
06:32PM 43.5489 -87.4347 315° West 379 436 40,000  Level Chicago Center
06:33PM 43.6256 -87.5361 316° Northwest 383 441 40,000  Level Chicago Center
06:34PM 43.7181 -87.6631 315° West 391 450 40,000  Level Chicago Center
06:35PM 43.7967 -87.7689 316° Northwest 397 457 40,000  Level Chicago Center
06:36PM 43.8758 -87.8767 316° Northwest 401 461 40,000  Level Chicago Center
06:37PM 43.9547 -87.9844 315° West 401 461 40,000  Level Chicago Center
06:38PM 44.0344 -88.0931 316° Northwest 404 465 40,000  Level Chicago Center
06:39PM 44.1294 -88.2242 315° West 404 465 40,000  Level Chicago Center
06:40PM 44.2072 -88.3339 315° West 402 463 40,000  Level Chicago Center
06:41PM 44.2858 -88.4422 315° West 401 461 40,000  Level Chicago Center
06:42PM 44.3633 -88.5511 315° West 399 459 40,000  Level Chicago Center
06:43PM 44.4408 -88.6600 315° West 398 458 40,000  Level Chicago Center
06:44PM 44.5331 -88.7903 315° West 395 455 40,000  Level Chicago Center
06:46PM 44.6253 -88.9194 315° West 396 456 40,000  Level Minneapolis Center
06:47PM 44.7011 -89.0283 314° West 393 452 40,000  Level Minneapolis Center
06:48PM 44.7772 -89.1394 314° West 395 455 40,000  Level Minneapolis Center
06:49PM 44.8694 -89.2700 315° West 394 453 40,000  Level Minneapolis Center
06:50PM 44.9456 -89.3789 315° West 391 450 40,000  Level Minneapolis Center
06:51PM 45.0211 -89.4889 314° West 392 451 40,000  Level Minneapolis Center
06:52PM 45.0944 -89.5972 314° West 393 452 40,000  Level Minneapolis Center
06:53PM 45.1708 -89.7089 314° West 393 452 40,000 -600 Level Minneapolis Center
06:54PM 45.2611 -89.8394 315° West 388 447 38,800 -1,500 Descending Minneapolis Center
06:55PM 45.3386 -89.9550 314° West 395 455 37,000 -1,800 Descending Minneapolis Center
06:56PM 45.4200 -90.0739 314° West 407 468 35,100 -1,860 Descending Minneapolis Center
06:57PM 45.5044 -90.1997 314° West 425 489 33,200 -1,920 Descending Minneapolis Center
06:58PM 45.5897 -90.3275 314° West 438 504 31,200 -2,040 Descending Minneapolis Center
06:59PM 45.6925 -90.4806 314° West 442 509 28,900 -2,040 Descending Minneapolis Center
07:00PM 45.7767 -90.6086 313° West 440 506 26,900 -1,920 Descending Minneapolis Center
07:01PM 45.8603 -90.7361 313° West 437 503 25,000 -1,860 Descending Minneapolis Center
07:02PM 45.9422 -90.8594 314° West 429 494 23,100 -1,800 Descending Minneapolis Center
07:03PM 46.0181 -90.9764 313° West 415 478 21,300 -1,740 Descending Minneapolis Center
07:04PM 46.0928 -91.0889 314° West 402 463 19,600 -1,620 Descending Minneapolis Center
07:05PM 46.1644 -91.1972 314° West 389 448 18,000 -1,800 Descending Minneapolis Center
07:07PM 46.2469 -91.3264 313° West 371 427 16,000 -1,800 Descending Minneapolis Center
07:08PM 46.3169 -91.4353 313° West 368 423 14,400 -1,560 Descending Minneapolis Center
07:09PM 46.3875 -91.5433 313° West 370 426 12,800 -1,560 Descending Minneapolis Center
07:10PM 46.4506 -91.6436 312° West 315 362 11,200 -1,380 Descending Minneapolis Center
07:11PM 46.4994 -91.7208 313° West 270 311 10,000 -1,140 Descending Minneapolis Center
07:12PM 46.5478 -91.7975 313° West 261 300 8,900 -1,140 Descending Minneapolis Center
07:13PM 46.5964 -91.8733 313° West 259 298 7,700 -1,260 Descending Minneapolis Center
07:14PM 46.6508 -91.9272 326° Northwest 248 285 6,400 -1,140 Descending Minneapolis Center
07:15PM 46.7114 -91.9608 339° North 238 274 5,400 -1,140 Descending Minneapolis Center
07:16PM 46.7842 -92.0142 333° Northwest 240 276 4,100 -1,020 Descending Minneapolis Center
07:17PM 46.8269 -92.0447 334° Northwest 195 224 3,300 -720 Descending Minneapolis Center
07:18PM 46.8419 -92.0872 297° West 146 168 2,700 -660 Descending Minneapolis Center
07:19PM 46.8414 -92.1364 269° West 126 145 2,000 -480 Descending Minneapolis Center
07:20PM 46.8414 -92.1936 270° West 123 142 1,800 -240 Descending Minneapolis Center
07:22PM 46.8421 -92.1936 North  Level Estimated